TimeEET,TemperatureF,Dew PointF,Humidity,Sea Level PressureIn,VisibilityMPH,Wind Direction,Wind SpeedMPH,Gust SpeedMPH,PrecipitationIn,Events,Conditions,WindDirDegrees,DateUTC
12:20 AM,48.2,48.2,100,30.27,-9999.0,Calm,Calm,-,N/A,,Clear,0,2013-03-05 22:20:00
12:50 AM,51.8,46.4,82,3.01,6.2,SE,4.6,-,N/A,,Mostly Cloudy,140,2013-03-05 22:50:00
1:20 AM,55.4,48.2,77,30.27,6.2,SE,8.1,-,N/A,,Mostly Cloudy,130,2013-03-05 23:20:00
1:50 AM,57.2,50.0,77,30.27,6.2,SE,8.1,-,N/A,,Mostly Cloudy,140,2013-03-05 23:50:00
2:00 AM,57,49,67,30.29,6,SE,8.1,,,,Partly Cloudy,140,2013-03-06 00:00:00
2:20 AM,57.2,50.0,77,30.27,6.2,SE,10.4,-,N/A,,Mostly Cloudy,130,2013-03-06 00:20:00
2:50 AM,55.4,48.2,77,30.27,6.2,SE,9.2,-,N/A,,Overcast,140,2013-03-06 00:50:00
3:20 AM,55.4,48.2,77,30.27,6.2,SE,9.2,-,N/A,,Overcast,130,2013-03-06 01:20:00
3:50 AM,57.2,46.4,67,30.24,6.2,SE,9.2,-,N/A,,Overcast,130,2013-03-06 01:50:00
4:20 AM,57.2,46.4,67,30.24,6.2,SE,9.2,-,N/A,,Overcast,130,2013-03-06 02:20:00
4:50 AM,55.4,48.2,77,30.21,6.2,SE,6.9,-,N/A,,Overcast,140,2013-03-06 02:50:00
5:20 AM,55.4,48.2,77,30.21,-9999.0,SE,6.9,-,N/A,,Clear,130,2013-03-06 03:20:00
5:50 AM,55.4,48.2,77,30.21,-9999.0,ESE,5.8,-,N/A,,Clear,120,2013-03-06 03:50:00
6:20 AM,55.4,48.2,77,30.21,-9999.0,SSE,5.8,-,N/A,,Clear,150,2013-03-06 04:20:00
6:50 AM,55.4,48.2,77,30.21,-9999.0,SSE,5.8,-,N/A,,Clear,160,2013-03-06 04:50:00
7:20 AM,55.4,48.2,77,30.21,-9999.0,SE,10.4,-,N/A,,Clear,140,2013-03-06 05:20:00
7:50 AM,55.4,46.4,72,30.21,6.2,SE,9.2,-,N/A,,Overcast,140,2013-03-06 05:50:00
8:00 AM,55,47,66,30.22,12,SE,9.2,,,,Overcast,140,2013-03-06 06:00:00
8:20 AM,55.4,46.4,72,30.21,6.2,SE,9.2,-,N/A,,Overcast,140,2013-03-06 06:20:00
8:50 AM,55.4,48.2,77,30.21,6.2,SE,11.5,-,N/A,,Overcast,140,2013-03-06 06:50:00
9:20 AM,55.4,48.2,77,30.21,6.2,SE,11.5,-,N/A,,Overcast,140,2013-03-06 07:20:00
9:50 AM,55.4,48.2,77,30.21,6.2,ESE,11.5,-,N/A,,Overcast,120,2013-03-06 07:50:00
10:50 AM,57.2,48.2,72,30.21,6.2,SE,11.5,-,N/A,,Overcast,140,2013-03-06 08:50:00
11:20 AM,57.2,48.2,72,30.21,6.2,SE,11.5,-,N/A,,Overcast,140,2013-03-06 09:20:00
11:50 AM,57.2,48.2,72,30.21,6.2,SE,11.5,-,N/A,,Overcast,140,2013-03-06 09:50:00
12:20 PM,57.2,48.2,72,30.21,6.2,SE,12.7,-,N/A,,Overcast,130,2013-03-06 10:20:00
12:50 PM,59.0,46.4,63,30.21,6.2,SSE,16.1,-,N/A,,Overcast,150,2013-03-06 10:50:00
1:20 PM,59.0,46.4,63,30.21,6.2,SSE,16.1,-,N/A,,Overcast,150,2013-03-06 11:20:00
1:50 PM,59.0,46.4,63,30.15,6.2,SSE,15.0,-,N/A,,Overcast,150,2013-03-06 11:50:00
2:00 PM,59,46,52,30.18,12,SSE,15.0,,,,Overcast,150,2013-03-06 12:00:00
2:20 PM,59.0,46.4,63,30.15,6.2,SE,10.4,-,N/A,,Overcast,140,2013-03-06 12:20:00
2:50 PM,59.0,46.4,63,30.15,6.2,SSE,10.4,-,N/A,,Overcast,150,2013-03-06 12:50:00
3:20 PM,59.0,48.2,67,30.09,6.2,SSE,12.7,-,N/A,,Overcast,150,2013-03-06 13:20:00
3:50 PM,59.0,48.2,67,30.09,6.2,SSE,11.5,-,N/A,,Overcast,160,2013-03-06 13:50:00
4:20 PM,59.0,48.2,67,30.09,6.2,SSE,15.0,-,N/A,,Overcast,150,2013-03-06 14:20:00
4:50 PM,59.0,48.2,67,30.09,6.2,SSE,12.7,-,N/A,,Overcast,160,2013-03-06 14:50:00
5:20 PM,57.2,46.4,67,30.06,6.2,SE,10.4,-,N/A,,Overcast,140,2013-03-06 15:20:00
5:50 PM,57.2,46.4,67,30.06,6.2,SE,5.8,-,N/A,,Overcast,140,2013-03-06 15:50:00
6:20 PM,57.2,46.4,67,30.04,6.2,SE,5.8,-,N/A,,Overcast,130,2013-03-06 16:20:00
6:50 PM,57.2,48.2,72,30.04,6.2,SSE,8.1,-,N/A,,Overcast,150,2013-03-06 16:50:00
7:20 PM,57.2,48.2,72,30.04,6.2,SE,11.5,-,N/A,,Overcast,140,2013-03-06 17:20:00
7:50 PM,57.2,44.6,63,30.04,6.2,SE,6.9,-,N/A,,Overcast,130,2013-03-06 17:50:00
8:00 PM,58,44,49,30.06,6,SE,6.9,,,,Overcast,130,2013-03-06 18:00:00
8:20 PM,59.0,44.6,59,30.04,6.2,SE,6.9,-,N/A,,Overcast,140,2013-03-06 18:20:00
8:50 PM,59.0,42.8,55,30.04,6.2,SSW,4.6,-,N/A,,Overcast,200,2013-03-06 18:50:00
9:20 PM,57.2,46.4,67,30.04,6.2,SSW,3.5,-,N/A,,Mostly Cloudy,210,2013-03-06 19:20:00
9:50 PM,55.4,48.2,77,30.04,6.2,South,8.1,-,N/A,,Mostly Cloudy,180,2013-03-06 19:50:00
10:20 PM,55.4,48.2,77,30.04,6.2,South,8.1,-,N/A,,Mostly Cloudy,180,2013-03-06 20:20:00
10:50 PM,55.4,48.2,77,30.04,6.2,South,9.2,-,N/A,,Mostly Cloudy,180,2013-03-06 20:50:00
11:20 PM,55.4,48.2,77,30.04,6.2,South,9.2,-,N/A,,Mostly Cloudy,180,2013-03-06 21:20:00
11:50 PM,55.4,48.2,77,30.04,6.2,South,6.9,-,N/A,,Mostly Cloudy,180,2013-03-06 21:50:00